»·PEaware :: SWA1587 KBUR-KSFO

SWA1587 :: KBUR-KSFO

FLIGHT INFORMATION

Flight Status: Arrived
Operator:
Southwest Airlines
More flights by this operator :: More flights under this callsign
Pilot: Ben F. (2808)
Aircraft: BOEING 737-300
(B733)
More flights by this aircraft type
Origin: KBUR Bob Hope-Burbank
United States
Destination: KSFO San Francisco Intl
United States
More flights between these airports :: More routes between these airports
Route: OROSZ2 COREZ MAKRS SERFR SERFR3
File this flight plan on PilotEdge
Remarks:
Altitude:
(Current/Filed)
34,000ft
Speed:
(Current/Filed)
437kts
Departed: 17-Apr-18 07:55 PM
Arrived: 17-Apr-18 08:51 PM
Distance/Time
Traveled:
283nm/0:56
Distance/Time
To Go:
Arrived

Flight Plot

Page will automatically refresh every two minutes.

Flight plan parsing failed; only flown route is shown


Map Options




Map Legend


Flown Route
Filed Route
Departure Airport
Arrival Airport
Navaid (VOR, NDB)
Fix

Horizontal Profiles

Position Reports

Time Latitude Longitude Heading Altitude Ground
Speed
17-Apr-18 19:32 34.196773 -118.351977 179 783ft 0kts
17-Apr-18 19:33 34.196773 -118.351977 179 783ft 0kts
17-Apr-18 19:34 34.196773 -118.351977 179 783ft 0kts
17-Apr-18 19:35 34.196773 -118.351977 179 783ft 0kts
17-Apr-18 19:36 34.196773 -118.351977 179 783ft 0kts
17-Apr-18 19:37 34.196773 -118.351977 179 783ft 0kts
17-Apr-18 19:38 34.196773 -118.351977 179 783ft 0kts
17-Apr-18 19:39 34.196773 -118.351977 179 783ft 0kts
17-Apr-18 19:40 34.196773 -118.351977 179 783ft 0kts
17-Apr-18 19:41 34.196773 -118.351977 179 783ft 0kts
17-Apr-18 19:42 34.196773 -118.351977 179 783ft 0kts
17-Apr-18 19:43 34.196773 -118.351977 179 783ft 0kts
17-Apr-18 19:44 34.196773 -118.351977 179 783ft 0kts
17-Apr-18 19:45 34.196773 -118.351977 179 783ft 0kts
17-Apr-18 19:46 34.196897 -118.351977 179 783ft 2kts
17-Apr-18 19:47 34.197181 -118.351636 270 783ft 0kts
17-Apr-18 19:48 34.197181 -118.351636 270 783ft 0kts
17-Apr-18 19:49 34.197186 -118.352365 269 783ft 8kts
17-Apr-18 19:50 34.200060 -118.355722 346 783ft 21kts
17-Apr-18 19:51 34.206536 -118.357507 347 783ft 25kts
17-Apr-18 19:52 34.211658 -118.359159 313 783ft 6kts
17-Apr-18 19:53 34.211136 -118.360145 167 783ft 2kts
17-Apr-18 19:54 34.185323 -118.353307 171 1216ft 182kts
17-Apr-18 19:55 34.138461 -118.386499 221 3553ft 235kts
17-Apr-18 19:56 34.137319 -118.447805 314 5820ft 269kts
17-Apr-18 19:57 34.203416 -118.467104 352 8757ft 281kts
17-Apr-18 19:58 34.269637 -118.495112 312 11427ft 289kts
17-Apr-18 19:59 34.327710 -118.578974 311 13046ft 344kts
17-Apr-18 20:00 34.394330 -118.656638 334 15706ft 352kts
17-Apr-18 20:01 34.478679 -118.710832 328 18116ft 360kts
17-Apr-18 20:02 34.565877 -118.772498 327 20370ft 370kts
17-Apr-18 20:03 34.655314 -118.835905 327 22403ft 379kts
17-Apr-18 20:04 34.747607 -118.901447 326 24199ft 390kts
17-Apr-18 20:05 34.842442 -118.968913 325 25832ft 402kts
17-Apr-18 20:06 34.939684 -119.038330 325 27448ft 410kts
17-Apr-18 20:07 35.037813 -119.108827 324 29363ft 405kts
17-Apr-18 20:08 35.132525 -119.176754 323 30796ft 408kts
17-Apr-18 20:09 35.226897 -119.244526 322 32180ft 406kts
17-Apr-18 20:10 35.323499 -119.314228 321 33261ft 409kts
17-Apr-18 20:11 35.421362 -119.385069 321 33981ft 418kts
17-Apr-18 20:12 35.521573 -119.457757 321 34242ft 420kts
17-Apr-18 20:13 35.570753 -119.567366 273 34230ft 378kts
17-Apr-18 20:14 35.587924 -119.692193 275 34217ft 378kts
17-Apr-18 20:15 35.606678 -119.818833 275 34227ft 378kts
17-Apr-18 20:16 35.625314 -119.945155 275 34217ft 378kts
17-Apr-18 20:17 35.643851 -120.071753 275 34211ft 378kts
17-Apr-18 20:18 35.662276 -120.198600 275 34211ft 378kts
17-Apr-18 20:19 35.680659 -120.326087 275 34211ft 378kts
17-Apr-18 20:20 35.722184 -120.447390 289 34214ft 390kts
17-Apr-18 20:21 35.768309 -120.567544 289 34210ft 390kts
17-Apr-18 20:22 35.812921 -120.684641 288 34194ft 390kts
17-Apr-18 20:23 35.858673 -120.805225 288 34212ft 389kts
17-Apr-18 20:24 35.904386 -120.926047 288 34211ft 389kts
17-Apr-18 20:25 35.949923 -121.046864 288 34211ft 390kts
17-Apr-18 20:26 35.995527 -121.168318 288 34212ft 391kts
17-Apr-18 20:27 36.040859 -121.289502 288 34235ft 391kts
17-Apr-18 20:28 36.103910 -121.395160 321 34269ft 421kts
17-Apr-18 20:29 36.195517 -121.463628 320 33897ft 416kts
17-Apr-18 20:30 36.293845 -121.540453 321 30479ft 425kts
17-Apr-18 20:31 36.392490 -121.617760 322 27600ft 417kts
17-Apr-18 20:32 36.484449 -121.690223 321 25723ft 394kts
17-Apr-18 20:33 36.577575 -121.764145 322 23148ft 392kts
17-Apr-18 20:34 36.666534 -121.834564 323 21086ft 371kts
17-Apr-18 20:35 36.753123 -121.897714 341 19046ft 361kts
17-Apr-18 20:36 36.850887 -121.924979 344 16824ft 358kts
17-Apr-18 20:37 36.945540 -121.951181 344 14642ft 341kts
17-Apr-18 20:38 37.034938 -121.985424 340 12364ft 338kts
17-Apr-18 20:39 37.118956 -122.018190 341 10307ft 317kts
17-Apr-18 20:40 37.187364 -122.044852 341 9077ft 292kts
17-Apr-18 20:41 37.259351 -122.073023 340 7998ft 266kts
17-Apr-18 20:42 37.326977 -122.099727 340 7191ft 267kts
17-Apr-18 20:43 37.394605 -122.125406 343 5886ft 258kts
17-Apr-18 20:44 37.461209 -122.148245 343 4352ft 247kts
17-Apr-18 20:45 37.522162 -122.169208 342 3442ft 213kts
17-Apr-18 20:46 37.553992 -122.219061 295 2501ft 175kts
17-Apr-18 20:47 37.574222 -122.269321 297 1613ft 149kts
17-Apr-18 20:48 37.591755 -122.310754 297 904ft 131kts
17-Apr-18 20:49 37.608465 -122.350414 295 202ft 126kts
17-Apr-18 20:50 37.618975 -122.376876 271 20ft 24kts
17-Apr-18 20:51 37.616836 -122.379538 200 20ft 18kts
17-Apr-18 20:52 37.611613 -122.382964 208 20ft 14kts
17-Apr-18 20:53 37.612259 -122.384120 30 20ft 0kts
17-Apr-18 20:54 37.612259 -122.384120 30 20ft 0kts

Navigation Log

Ident Type
Flight plan parsing failed, navigation log unavailable